Time;durP1;ratioP1;P1;durP2;ratioP2;P2;SDS_P1;SDS_P2;PMS_P1;PMS_P2;Temp;Humidity;BMP_temperature;BMP_pressure;BME280_temperature;BME280_humidity;BME280_pressure;Samples;Min_cycle;Max_cycle;Signal;HPM_P1;HPM_P2
2023/10/31 00:02:14;;;;;;;15.93;10.35;;;12.00;99.90;;;;;;5120610;27;20051;-83
2023/10/31 00:04:40;;;;;;;17.58;10.38;;;12.00;99.90;;;;;;5098931;27;20584;-83
2023/10/31 00:07:06;;;;;;;23.05;10.90;;;12.10;99.90;;;;;;5083822;28;20046;-84
2023/10/31 00:09:31;;;;;;;14.35;11.13;;;12.10;99.90;;;;;;5082061;28;20059;-83
2023/10/31 00:11:58;;;;;;;14.80;10.05;;;12.10;99.90;;;;;;5100684;28;20077;-83
2023/10/31 00:14:24;;;;;;;18.30;11.55;;;12.00;99.90;;;;;;5099929;28;20039;-84
2023/10/31 00:16:49;;;;;;;17.95;9.43;;;12.10;99.90;;;;;;5099145;28;20059;-84
2023/10/31 00:19:15;;;;;;;16.17;10.70;;;12.10;99.90;;;;;;5100440;28;20044;-83
2023/10/31 00:21:41;;;;;;;15.98;10.15;;;12.10;99.90;;;;;;5082330;28;20135;-83
2023/10/31 00:24:07;;;;;;;13.23;10.23;;;12.10;99.90;;;;;;5084056;28;20058;-84
2023/10/31 00:26:33;;;;;;;19.33;11.80;;;12.10;99.90;;;;;;5082142;28;20537;-85
2023/10/31 00:28:58;;;;;;;17.33;10.25;;;12.10;99.90;;;;;;5083361;28;20472;-84
2023/10/31 00:31:24;;;;;;;21.23;11.70;;;12.10;99.90;;;;;;5081889;28;20107;-84
2023/10/31 00:33:50;;;;;;;16.55;10.93;;;12.10;99.90;;;;;;5082823;28;20059;-84
2023/10/31 00:36:15;;;;;;;14.55;10.82;;;12.10;99.90;;;;;;5099601;28;20056;-84
2023/10/31 00:38:41;;;;;;;19.70;11.90;;;12.10;99.90;;;;;;5082003;28;20148;-83
2023/10/31 00:41:07;;;;;;;17.42;11.98;;;12.10;99.90;;;;;;5100056;28;20059;-84
2023/10/31 00:43:33;;;;;;;15.60;10.60;;;12.10;99.90;;;;;;5098731;28;20112;-83
2023/10/31 00:45:58;;;;;;;19.25;12.40;;;12.10;99.90;;;;;;5082642;28;20073;-83
2023/10/31 00:48:24;;;;;;;18.77;11.60;;;12.10;99.90;;;;;;5098853;28;20055;-83
2023/10/31 00:50:50;;;;;;;17.60;11.77;;;12.10;99.90;;;;;;5082773;28;20063;-83
2023/10/31 00:53:16;;;;;;;20.38;11.23;;;12.10;99.90;;;;;;5082705;28;20118;-83
2023/10/31 00:55:42;;;;;;;18.50;12.75;;;12.10;99.90;;;;;;5098877;28;20155;-83
2023/10/31 00:58:08;;;;;;;22.27;12.00;;;12.10;99.90;;;;;;5099893;28;20059;-83
2023/10/31 01:00:34;;;;;;;18.38;12.15;;;12.10;99.90;;;;;;5098356;28;20071;-83
2023/10/31 01:03:00;;;;;;;18.40;11.75;;;12.10;99.90;;;;;;5099748;28;20066;-84
2023/10/31 01:05:28;;;;;;;18.52;13.57;;;12.10;99.90;;;;;;5081982;28;20097;-83
2023/10/31 01:07:54;;;;;;;20.05;12.93;;;12.10;99.90;;;;;;5082348;28;20115;-83
2023/10/31 01:10:20;;;;;;;22.65;12.30;;;12.10;99.90;;;;;;5082160;28;20050;-84
2023/10/31 01:12:46;;;;;;;19.30;12.80;;;12.10;99.90;;;;;;5082026;28;20486;-82
2023/10/31 01:15:11;;;;;;;19.60;13.50;;;12.10;99.90;;;;;;5099594;28;20066;-84
2023/10/31 01:17:37;;;;;;;18.85;13.27;;;12.10;99.90;;;;;;5081736;28;20587;-83
2023/10/31 01:20:03;;;;;;;19.55;12.38;;;12.10;99.90;;;;;;5099741;28;20107;-83
2023/10/31 01:22:29;;;;;;;18.90;13.48;;;12.10;99.90;;;;;;5082106;28;20102;-83
2023/10/31 01:24:55;;;;;;;17.98;12.00;;;12.10;99.90;;;;;;5099435;28;20491;-82
2023/10/31 01:27:20;;;;;;;17.73;12.25;;;12.10;99.90;;;;;;5082943;28;20052;-82
2023/10/31 01:29:46;;;;;;;8.45;7.07;;;12.10;99.90;;;;;;5085589;28;20083;-81
2023/10/31 01:32:12;;;;;;;6.95;5.10;;;12.10;99.90;;;;;;5103680;28;20079;-80
2023/10/31 01:34:37;;;;;;;3.85;2.65;;;12.00;99.90;;;;;;5102255;28;20048;-80
2023/10/31 01:37:03;;;;;;;1.20;1.10;;;12.00;99.90;;;;;;5103676;28;20051;-80
2023/10/31 01:39:29;;;;;;;1.00;1.00;;;11.90;99.90;;;;;;5085522;28;20058;-80
2023/10/31 01:41:55;;;;;;;0.90;0.90;;;11.80;99.90;;;;;;5086468;28;20055;-80
2023/10/31 01:44:21;;;;;;;0.70;0.70;;;11.80;99.90;;;;;;5085509;28;20466;-80
2023/10/31 01:46:47;;;;;;;0.80;0.80;;;11.70;99.90;;;;;;5086032;28;20059;-80
2023/10/31 01:49:14;;;;;;;0.80;0.80;;;11.70;99.90;;;;;;5103109;28;20052;-81
2023/10/31 01:51:41;;;;;;;0.90;0.90;;;11.70;99.90;;;;;;5102250;28;20166;-81
2023/10/31 01:54:08;;;;;;;1.02;1.02;;;11.60;99.90;;;;;;5086988;28;20422;-82
2023/10/31 01:56:34;;;;;;;0.90;0.90;;;11.60;99.90;;;;;;5085234;28;20048;-82
2023/10/31 01:59:00;;;;;;;0.88;0.88;;;11.60;99.90;;;;;;5086094;28;20052;-82
2023/10/31 02:01:26;;;;;;;1.10;0.70;;;11.50;99.90;;;;;;5085364;28;20514;-84
2023/10/31 02:03:53;;;;;;;1.20;0.70;;;11.50;99.90;;;;;;5102594;28;20040;-83
2023/10/31 02:06:19;;;;;;;0.70;0.70;;;11.50;99.90;;;;;;5085888;28;20142;-84
2023/10/31 02:08:47;;;;;;;0.68;0.60;;;11.40;99.90;;;;;;5084672;28;20091;-83
2023/10/31 02:11:13;;;;;;;0.50;0.50;;;11.30;99.90;;;;;;5065748;28;20063;-84
2023/10/31 02:13:38;;;;;;;0.60;0.60;;;11.40;99.90;;;;;;5081234;28;20056;-83
2023/10/31 02:16:04;;;;;;;1.50;0.65;;;11.30;99.90;;;;;;5082309;28;20055;-84
2023/10/31 02:18:30;;;;;;;3.90;0.80;;;11.30;99.90;;;;;;5098577;28;20052;-83
2023/10/31 02:20:56;;;;;;;2.35;0.80;;;11.30;99.90;;;;;;5064919;28;20078;-84
2023/10/31 02:23:21;;;;;;;0.90;0.90;;;11.20;99.90;;;;;;5065358;28;20059;-83
2023/10/31 02:25:47;;;;;;;0.77;0.77;;;11.20;99.90;;;;;;5064280;28;20051;-84
2023/10/31 02:28:13;;;;;;;0.93;0.70;;;11.20;99.90;;;;;;5065315;28;20070;-83
2023/10/31 02:30:39;;;;;;;1.20;0.73;;;11.20;99.90;;;;;;5064370;28;21312;-83
2023/10/31 02:33:04;;;;;;;5.95;1.13;;;11.20;99.90;;;;;;5065295;28;20098;-83
2023/10/31 02:35:30;;;;;;;3.05;0.93;;;11.20;99.90;;;;;;5064208;28;20108;-83
2023/10/31 02:37:56;;;;;;;2.42;1.15;;;11.20;99.90;;;;;;5098288;28;20048;-86
2023/10/31 02:40:22;;;;;;;3.78;1.65;;;11.20;99.90;;;;;;5081565;28;20052;-84
2023/10/31 02:42:48;;;;;;;1.92;0.98;;;11.10;99.90;;;;;;5063741;28;20105;-83
2023/10/31 02:45:14;;;;;;;1.27;0.80;;;11.10;99.90;;;;;;5082084;28;20109;-83
2023/10/31 02:47:39;;;;;;;2.05;0.98;;;11.10;99.90;;;;;;5063723;28;20063;-83
2023/10/31 02:50:06;;;;;;;1.75;1.00;;;11.10;99.90;;;;;;5065360;28;20051;-83
2023/10/31 02:52:32;;;;;;;1.25;1.10;;;11.00;99.90;;;;;;5064336;28;20048;-83
2023/10/31 02:54:57;;;;;;;4.10;1.10;;;11.10;99.90;;;;;;5064927;28;20525;-82
2023/10/31 02:57:23;;;;;;;4.45;1.35;;;11.00;99.90;;;;;;5064428;28;20110;-83
2023/10/31 02:59:49;;;;;;;1.75;0.95;;;11.00;99.90;;;;;;5080932;28;20621;-83
2023/10/31 03:02:15;;;;;;;3.30;1.02;;;11.00;99.90;;;;;;5065100;28;20055;-83
2023/10/31 03:04:40;;;;;;;3.17;1.35;;;11.00;99.90;;;;;;5080592;28;20059;-83
2023/10/31 03:07:06;;;;;;;2.08;1.15;;;11.00;99.90;;;;;;5065234;28;20060;-83
2023/10/31 03:09:32;;;;;;;2.45;1.40;;;11.00;99.90;;;;;;5086796;28;20058;-82
2023/10/31 03:11:58;;;;;;;2.63;1.10;;;11.00;99.90;;;;;;5101225;28;20847;-82
2023/10/31 03:14:24;;;;;;;4.07;1.45;;;11.00;99.90;;;;;;5084280;28;20087;-83
2023/10/31 03:16:50;;;;;;;1.38;1.27;;;11.00;99.90;;;;;;5084105;28;20047;-83
2023/10/31 03:19:16;;;;;;;3.15;1.30;;;11.00;99.90;;;;;;5101172;28;20070;-83
2023/10/31 03:21:42;;;;;;;2.63;1.98;;;11.00;99.90;;;;;;5083630;28;20054;-82
2023/10/31 03:24:07;;;;;;;2.78;1.42;;;11.00;99.90;;;;;;5084838;28;20055;-82
2023/10/31 03:26:33;;;;;;;3.80;1.65;;;10.90;99.90;;;;;;5082670;28;20055;-83
2023/10/31 03:28:59;;;;;;;1.70;1.60;;;10.90;99.90;;;;;;5084477;28;20047;-82
2023/10/31 03:31:25;;;;;;;6.43;1.90;;;10.90;99.90;;;;;;5100717;28;20048;-84
2023/10/31 03:33:51;;;;;;;2.55;1.70;;;10.90;99.90;;;;;;5084279;28;20060;-83
2023/10/31 03:36:17;;;;;;;3.20;1.83;;;10.90;99.90;;;;;;5084270;28;20115;-83
2023/10/31 03:38:43;;;;;;;2.88;1.80;;;10.90;99.90;;;;;;5083201;28;20047;-83
2023/10/31 03:41:09;;;;;;;3.17;1.58;;;10.90;99.90;;;;;;5101279;28;20117;-84
2023/10/31 03:43:35;;;;;;;3.63;2.15;;;10.90;99.90;;;;;;5099881;28;20079;-84
2023/10/31 03:46:01;;;;;;;5.30;1.50;;;10.90;99.90;;;;;;5100786;28;20140;-84
2023/10/31 03:48:27;;;;;;;6.57;1.80;;;10.90;99.90;;;;;;5083202;28;20059;-83
2023/10/31 03:50:53;;;;;;;1.63;1.50;;;10.90;99.90;;;;;;5082920;28;20076;-84
2023/10/31 03:53:18;;;;;;;1.73;1.40;;;10.90;99.90;;;;;;5083356;28;20059;-84
2023/10/31 03:55:44;;;;;;;1.63;1.50;;;10.90;99.90;;;;;;5099589;28;20083;-84
2023/10/31 03:58:10;;;;;;;7.65;1.63;;;10.90;99.90;;;;;;5084030;28;20047;-83
2023/10/31 04:00:36;;;;;;;3.13;1.85;;;11.00;99.90;;;;;;5099511;28;20051;-84
2023/10/31 04:03:02;;;;;;;2.58;1.80;;;10.90;99.90;;;;;;5100817;28;20066;-83
2023/10/31 04:05:28;;;;;;;3.70;2.05;;;11.00;99.90;;;;;;5083133;28;20604;-83
2023/10/31 04:07:54;;;;;;;4.22;2.00;;;10.90;99.90;;;;;;5083246;28;20062;-84
2023/10/31 04:10:20;;;;;;;1.92;1.83;;;10.90;99.90;;;;;;5079482;28;20060;-84
2023/10/31 04:12:46;;;;;;;3.00;2.50;;;11.00;99.90;;;;;;5096372;28;20086;-82
2023/10/31 04:15:11;;;;;;;3.10;1.63;;;11.00;99.90;;;;;;5080711;28;20052;-83
2023/10/31 04:17:38;;;;;;;2.20;2.00;;;10.90;99.90;;;;;;5079298;28;20044;-84
2023/10/31 04:20:04;;;;;;;1.80;1.40;;;10.90;99.90;;;;;;5097258;28;20099;-82
2023/10/31 04:22:30;;;;;;;1.48;1.23;;;11.00;99.90;;;;;;5079042;28;20148;-83
2023/10/31 04:24:56;;;;;;;3.60;1.95;;;10.90;99.90;;;;;;5079501;28;20036;-83
2023/10/31 04:27:21;;;;;;;1.27;0.95;;;10.90;99.90;;;;;;5079332;28;20116;-83
2023/10/31 04:29:48;;;;;;;5.88;2.40;;;10.90;99.90;;;;;;5095934;28;20059;-83
2023/10/31 04:32:13;;;;;;;1.15;1.05;;;10.90;99.90;;;;;;5097106;28;20528;-83
2023/10/31 04:34:39;;;;;;;1.10;1.00;;;10.90;99.90;;;;;;5078587;28;20107;-82
2023/10/31 04:37:05;;;;;;;1.50;1.40;;;11.00;99.90;;;;;;5079693;28;20075;-83
2023/10/31 04:39:31;;;;;;;1.52;1.42;;;11.00;99.90;;;;;;5078468;28;20051;-83
2023/10/31 04:41:57;;;;;;;1.58;1.30;;;11.00;99.90;;;;;;5079252;28;20071;-83
2023/10/31 04:44:22;;;;;;;6.65;1.90;;;10.90;99.90;;;;;;5096080;28;20115;-83
2023/10/31 04:46:48;;;;;;;2.30;1.58;;;10.90;99.90;;;;;;5078996;28;20070;-83
2023/10/31 04:49:15;;;;;;;3.17;1.65;;;10.90;99.90;;;;;;5079746;28;20055;-84
2023/10/31 04:51:41;;;;;;;4.05;1.50;;;10.90;99.90;;;;;;5094813;28;20059;-83
2023/10/31 04:54:07;;;;;;;4.82;1.20;;;10.90;99.90;;;;;;5079856;28;20159;-83
2023/10/31 04:56:33;;;;;;;1.35;1.23;;;10.90;99.90;;;;;;5078539;28;20137;-83
2023/10/31 04:58:59;;;;;;;3.40;1.50;;;10.90;99.90;;;;;;5096142;28;20518;-83
2023/10/31 05:01:25;;;;;;;2.42;1.63;;;10.90;99.90;;;;;;5096453;28;20048;-84
2023/10/31 05:03:50;;;;;;;2.88;1.25;;;10.90;99.90;;;;;;5083091;28;20048;-83
2023/10/31 05:06:23;;;;;;;3.60;1.30;;;10.90;99.90;;;;;;5083419;28;20068;-84
2023/10/31 05:08:49;;;;;;;1.90;1.27;;;10.80;99.90;;;;;;5082307;28;20055;-83
2023/10/31 05:11:18;;;;;;;2.13;1.10;;;10.90;99.90;;;;;;5083616;28;20044;-84
2023/10/31 05:13:47;;;;;;;2.67;1.55;;;10.80;99.90;;;;;;5082257;28;20091;-83
2023/10/31 05:16:13;;;;;;;5.35;1.40;;;10.80;99.90;;;;;;5083431;28;20052;-84
2023/10/31 05:18:39;;;;;;;2.08;1.15;;;10.90;99.90;;;;;;5099709;28;20143;-84
2023/10/31 05:21:05;;;;;;;4.60;1.30;;;10.90;99.90;;;;;;5099606;28;20048;-84
2023/10/31 05:23:31;;;;;;;1.98;1.20;;;10.80;99.90;;;;;;5100586;28;20076;-83
2023/10/31 05:25:57;;;;;;;1.80;1.40;;;10.80;99.90;;;;;;5082518;28;20052;-84
2023/10/31 05:28:23;;;;;;;2.88;2.08;;;10.80;99.90;;;;;;5083542;28;20102;-83
2023/10/31 05:30:49;;;;;;;3.67;1.77;;;10.80;99.90;;;;;;5082414;28;20044;-85
2023/10/31 05:33:16;;;;;;;2.30;1.92;;;10.80;99.90;;;;;;5100301;28;20056;-84
2023/10/31 05:35:42;;;;;;;4.65;1.92;;;10.80;99.90;;;;;;5082293;28;20067;-84
2023/10/31 05:38:08;;;;;;;3.40;1.90;;;10.80;99.90;;;;;;5099652;28;20058;-83
2023/10/31 05:40:35;;;;;;;6.93;1.98;;;10.80;99.90;;;;;;5100211;28;20105;-84
2023/10/31 05:43:02;;;;;;;4.00;1.70;;;10.90;99.90;;;;;;5098597;28;20104;-84
2023/10/31 05:45:28;;;;;;;4.93;1.77;;;10.80;99.90;;;;;;5082892;28;20055;-84
2023/10/31 05:47:54;;;;;;;2.08;1.52;;;10.80;99.90;;;;;;5098443;28;20047;-84
2023/10/31 05:50:19;;;;;;;5.13;1.88;;;10.80;99.90;;;;;;5099269;28;20048;-84
2023/10/31 05:52:45;;;;;;;12.65;3.38;;;10.90;99.90;;;;;;5098849;28;20060;-83
2023/10/31 05:55:11;;;;;;;3.42;1.50;;;10.80;99.90;;;;;;5082088;28;20453;-84
2023/10/31 05:57:36;;;;;;;2.33;1.42;;;10.80;99.90;;;;;;5082597;28;20044;-84
2023/10/31 06:00:02;;;;;;;4.68;1.50;;;10.80;99.90;;;;;;5081791;28;20067;-84
2023/10/31 06:02:29;;;;;;;3.55;1.60;;;10.80;99.90;;;;;;5099807;28;20052;-84
2023/10/31 06:04:55;;;;;;;3.92;1.67;;;10.80;99.90;;;;;;5097923;28;20114;-83
2023/10/31 06:07:21;;;;;;;2.80;1.30;;;10.80;99.90;;;;;;5082583;28;20052;-83
2023/10/31 06:09:47;;;;;;;3.35;1.38;;;10.80;99.90;;;;;;5081046;28;20051;-83
2023/10/31 06:12:12;;;;;;;1.98;1.45;;;10.80;99.90;;;;;;5082068;28;20114;-83
2023/10/31 06:14:38;;;;;;;2.92;1.38;;;10.80;99.90;;;;;;5098323;28;20054;-85
2023/10/31 06:17:04;;;;;;;4.55;2.08;;;10.90;99.90;;;;;;5081300;28;20052;-83
2023/10/31 06:19:34;;;;;;;3.00;1.88;;;10.80;99.90;;;;;;5081970;28;20044;-82
2023/10/31 06:22:00;;;;;;;2.55;1.52;;;10.80;99.90;;;;;;5081193;28;20055;-78
2023/10/31 06:24:25;;;;;;;4.07;1.63;;;10.80;99.90;;;;;;5098919;28;20059;-84
2023/10/31 06:26:52;;;;;;;2.15;1.60;;;10.90;99.90;;;;;;5081523;28;20060;-86
2023/10/31 06:29:17;;;;;;;1.90;1.70;;;10.80;99.90;;;;;;5098542;28;20091;-86
2023/10/31 06:31:43;;;;;;;2.83;1.92;;;10.80;99.90;;;;;;5098606;28;20051;-85
2023/10/31 06:34:09;;;;;;;2.97;1.63;;;10.80;99.90;;;;;;5081198;28;20052;-86
2023/10/31 06:36:35;;;;;;;3.30;2.10;;;10.80;99.90;;;;;;5101292;28;20044;-86
2023/10/31 06:39:00;;;;;;;3.38;2.13;;;10.80;99.90;;;;;;5100663;28;20036;-86
2023/10/31 06:41:26;;;;;;;2.90;1.88;;;10.80;99.90;;;;;;5085384;28;20060;-85
2023/10/31 06:43:52;;;;;;;1.75;1.65;;;10.70;99.90;;;;;;5098828;28;20048;-85
2023/10/31 06:46:18;;;;;;;4.20;2.10;;;10.80;99.90;;;;;;5081735;28;20063;-88
2023/10/31 06:48:43;;;;;;;2.67;1.70;;;10.80;99.90;;;;;;5098225;28;20056;-80
2023/10/31 06:51:09;;;;;;;3.45;1.90;;;10.80;99.90;;;;;;5098352;28;20048;-85
2023/10/31 06:53:35;;;;;;;3.30;1.88;;;10.80;99.90;;;;;;5098804;28;20063;-84
2023/10/31 06:56:00;;;;;;;4.03;2.13;;;10.80;99.90;;;;;;5097645;28;20081;-85
2023/10/31 06:58:26;;;;;;;5.28;1.58;;;10.80;99.90;;;;;;5111066;28;20051;-87
2023/10/31 07:00:52;;;;;;;3.72;1.50;;;10.80;99.90;;;;;;5097786;28;20047;-86
2023/10/31 07:03:17;;;;;;;1.67;1.58;;;10.70;99.90;;;;;;5098610;28;20044;-85
2023/10/31 07:05:43;;;;;;;3.15;1.60;;;10.80;99.90;;;;;;5098165;28;20461;-81
2023/10/31 07:08:09;;;;;;;2.75;1.80;;;10.80;99.90;;;;;;5097936;28;20044;-87
2023/10/31 07:10:35;;;;;;;3.50;1.95;;;10.80;99.90;;;;;;5098673;28;20052;-93
2023/10/31 07:13:00;;;;;;;2.30;1.90;;;10.90;99.90;;;;;;5080868;28;20078;-90
2023/10/31 07:15:26;;;;;;;3.40;2.00;;;10.90;99.90;;;;;;5099606;28;20058;-92
2023/10/31 07:17:52;;;;;;;7.88;1.80;;;11.00;99.90;;;;;;5081159;28;20091;-91
2023/10/31 07:20:18;;;;;;;2.60;2.10;;;11.10;99.90;;;;;;5082176;28;20059;-90
2023/10/31 07:22:43;;;;;;;4.07;2.63;;;11.30;99.90;;;;;;5098271;28;20052;-87
2023/10/31 07:25:09;;;;;;;4.95;2.55;;;11.30;99.90;;;;;;5080863;28;20222;-89
2023/10/31 07:27:35;;;;;;;5.38;2.30;;;11.40;99.90;;;;;;5098912;28;20052;-88
2023/10/31 07:30:04;;;;;;;4.60;2.22;;;11.30;99.90;;;;;;5081123;28;20090;-89
2023/10/31 07:32:30;;;;;;;4.07;2.53;;;11.40;99.90;;;;;;5081769;28;20090;-79
2023/10/31 07:34:55;;;;;;;2.58;2.10;;;11.50;99.90;;;;;;5097160;28;20444;-79
2023/10/31 07:37:21;;;;;;;4.05;2.00;;;11.50;99.90;;;;;;5081148;28;20100;-77
2023/10/31 07:39:48;;;;;;;10.35;2.05;;;11.50;99.90;;;;;;5096971;28;20060;-77
2023/10/31 07:42:14;;;;;;;5.57;2.47;;;11.60;99.90;;;;;;5097368;28;20058;-79
2023/10/31 07:44:39;;;;;;;4.97;2.40;;;11.70;99.90;;;;;;5099091;28;20075;-93
2023/10/31 07:47:12;;;;;;;6.72;2.20;;;11.60;99.90;;;;;;5085480;27;20435;-67
2023/10/31 07:49:38;;;;;;;7.10;2.10;;;11.60;99.90;;;;;;5084074;28;20765;-67
2023/10/31 07:52:04;;;;;;;1.95;1.70;;;11.60;99.90;;;;;;5085516;28;20082;-68
2023/10/31 07:54:30;;;;;;;3.67;2.25;;;11.50;99.90;;;;;;5064358;22;20141;-72
2023/10/31 07:56:55;;;;;;;3.67;1.80;;;11.50;99.90;;;;;;5025110;28;20703;-71
2023/10/31 07:59:21;;;;;;;4.07;1.90;;;11.50;99.90;;;;;;5023926;28;20050;-72
2023/10/31 08:01:48;;;;;;;5.28;2.53;;;11.50;99.90;;;;;;5024869;28;20099;-71
2023/10/31 08:04:15;;;;;;;2.58;1.85;;;11.40;99.90;;;;;;5023545;28;20138;-71
2023/10/31 08:06:40;;;;;;;2.08;1.42;;;11.40;99.90;;;;;;5025049;28;20093;-71
2023/10/31 08:09:06;;;;;;;2.28;1.55;;;11.40;99.90;;;;;;5025278;28;20112;-70
2023/10/31 08:11:34;;;;;;;3.40;2.05;;;11.40;99.90;;;;;;5024916;28;20052;-67
2023/10/31 08:14:00;;;;;;;2.08;1.88;;;11.40;99.90;;;;;;5025056;28;20108;-67
2023/10/31 08:16:26;;;;;;;3.42;1.88;;;11.40;99.90;;;;;;5024936;28;20041;-68
2023/10/31 08:18:52;;;;;;;2.08;1.83;;;11.40;99.90;;;;;;5024913;28;20128;-66
2023/10/31 08:21:18;;;;;;;4.82;2.10;;;11.50;99.90;;;;;;5025586;28;20064;-66
2023/10/31 08:23:46;;;;;;;3.20;1.98;;;11.60;99.90;;;;;;5023931;28;20045;-69
2023/10/31 08:26:12;;;;;;;2.17;1.77;;;11.80;99.90;;;;;;5023849;28;20084;-69
2023/10/31 08:28:38;;;;;;;5.22;2.13;;;11.90;99.90;;;;;;5025386;28;20431;-68
2023/10/31 08:31:04;;;;;;;2.58;1.83;;;12.00;99.90;;;;;;5024844;28;20208;-68
2023/10/31 08:33:30;;;;;;;2.72;1.80;;;11.90;99.90;;;;;;5024337;28;20390;-68
2023/10/31 08:35:55;;;;;;;1.88;1.50;;;11.90;99.90;;;;;;5025045;28;20073;-70
2023/10/31 08:38:22;;;;;;;3.38;1.63;;;11.90;99.90;;;;;;5024968;28;20052;-69
2023/10/31 08:40:49;;;;;;;5.43;1.60;;;11.90;99.90;;;;;;5023306;28;20053;-69
2023/10/31 08:43:15;;;;;;;4.00;1.60;;;11.90;99.90;;;;;;5021120;28;20069;-69
2023/10/31 08:45:40;;;;;;;2.65;1.75;;;11.90;99.90;;;;;;5022643;28;20617;-68
2023/10/31 08:48:06;;;;;;;2.78;1.90;;;12.00;99.90;;;;;;5024526;28;20049;-68
2023/10/31 08:50:32;;;;;;;4.20;1.48;;;12.00;99.90;;;;;;5024332;28;20349;-68
2023/10/31 08:52:57;;;;;;;3.20;1.10;;;12.00;99.90;;;;;;5024271;28;20045;-68
2023/10/31 08:55:23;;;;;;;2.80;1.20;;;12.00;99.90;;;;;;5006188;28;20073;-69
2023/10/31 08:57:49;;;;;;;3.35;1.10;;;12.00;99.90;;;;;;5015049;28;20613;-69
2023/10/31 09:00:15;;;;;;;5.63;1.17;;;12.00;99.90;;;;;;5010851;28;20543;-71
2023/10/31 09:02:40;;;;;;;2.42;0.80;;;12.10;99.90;;;;;;5009647;28;20184;-70
2023/10/31 09:05:06;;;;;;;9.10;1.00;;;12.10;99.90;;;;;;5011183;28;20524;-68
2023/10/31 09:07:32;;;;;;;2.58;0.95;;;12.10;99.90;;;;;;5010907;28;20366;-69
2023/10/31 09:09:58;;;;;;;4.45;1.45;;;12.10;99.90;;;;;;5011220;28;20046;-68
2023/10/31 09:12:23;;;;;;;5.88;1.15;;;12.10;99.90;;;;;;5009635;28;20042;-68
2023/10/31 09:14:49;;;;;;;3.03;0.90;;;12.10;99.90;;;;;;5010698;28;20068;-67
2023/10/31 09:17:15;;;;;;;0.95;0.70;;;12.20;99.90;;;;;;5009340;28;20413;-70
2023/10/31 09:19:40;;;;;;;2.97;1.17;;;12.10;99.90;;;;;;5010609;28;20044;-67
2023/10/31 09:22:06;;;;;;;2.90;0.98;;;12.10;99.90;;;;;;5009185;28;20041;-71
2023/10/31 09:24:33;;;;;;;2.47;1.10;;;12.10;99.90;;;;;;5010837;28;20042;-70
2023/10/31 09:26:58;;;;;;;4.05;0.90;;;12.10;99.90;;;;;;5010279;28;20224;-70
2023/10/31 09:29:24;;;;;;;2.15;0.93;;;12.10;99.90;;;;;;5009184;28;20146;-71
2023/10/31 09:31:50;;;;;;;2.03;1.00;;;12.20;99.90;;;;;;5010640;28;20434;-69
2023/10/31 09:34:15;;;;;;;6.15;1.13;;;12.10;99.90;;;;;;5010522;28;20050;-70
2023/10/31 09:36:42;;;;;;;3.72;1.05;;;12.20;99.90;;;;;;5010560;28;20038;-70
2023/10/31 09:39:08;;;;;;;4.28;0.80;;;12.20;99.90;;;;;;5010530;28;20081;-70
2023/10/31 09:41:33;;;;;;;4.57;1.00;;;12.20;99.90;;;;;;5008655;28;20381;-69
2023/10/31 09:43:59;;;;;;;2.28;1.10;;;12.20;99.90;;;;;;5008605;28;20045;-71
2023/10/31 09:46:25;;;;;;;7.35;0.95;;;12.20;99.90;;;;;;5010487;28;20050;-71
2023/10/31 09:48:51;;;;;;;12.43;1.98;;;12.20;99.90;;;;;;5010228;28;20125;-71
2023/10/31 09:51:17;;;;;;;1.83;0.90;;;12.20;99.90;;;;;;5004488;28;20046;-71
2023/10/31 09:53:45;;;;;;;3.38;1.20;;;12.30;99.90;;;;;;5002792;28;20458;-70
2023/10/31 09:56:11;;;;;;;2.22;0.60;;;12.30;99.90;;;;;;5009691;28;20623;-71
2023/10/31 09:58:39;;;;;;;3.35;0.70;;;12.40;99.90;;;;;;5010381;28;20452;-70
2023/10/31 10:01:05;;;;;;;1.92;0.70;;;12.40;99.90;;;;;;5010200;28;20050;-70
2023/10/31 10:03:31;;;;;;;3.80;0.77;;;12.50;99.90;;;;;;5010546;28;20264;-70
2023/10/31 10:05:58;;;;;;;1.63;0.90;;;12.50;99.90;;;;;;5009806;28;20054;-69
2023/10/31 10:08:23;;;;;;;2.05;0.80;;;12.60;99.90;;;;;;5009386;28;20042;-68
2023/10/31 10:10:51;;;;;;;10.82;1.63;;;12.60;99.90;;;;;;5007564;28;20124;-70
2023/10/31 10:13:23;;;;;;;6.18;0.80;;;12.70;99.90;;;;;;4991784;28;20117;-67
2023/10/31 10:15:52;;;;;;;3.70;0.73;;;12.60;99.90;;;;;;5009634;28;20371;-67
2023/10/31 10:18:31;;;;;;;8.38;0.93;;;12.60;99.90;;;;;;5009176;28;20064;-67
2023/10/31 10:20:59;;;;;;;2.45;0.75;;;12.50;99.90;;;;;;5009797;28;20046;-67
2023/10/31 10:23:25;;;;;;;4.05;0.75;;;12.40;99.90;;;;;;5009693;28;20125;-72
2023/10/31 10:25:52;;;;;;;0.77;0.65;;;12.50;99.90;;;;;;5009026;28;20752;-71
2023/10/31 10:28:20;;;;;;;1.20;0.50;;;12.40;99.90;;;;;;5009759;28;20045;-72
2023/10/31 10:30:47;;;;;;;1.65;0.50;;;12.30;99.90;;;;;;5008114;28;20084;-72
2023/10/31 10:33:17;;;;;;;2.72;0.60;;;12.30;99.90;;;;;;5009825;28;20100;-72
2023/10/31 10:35:43;;;;;;;2.72;0.70;;;12.30;99.90;;;;;;5009284;28;20042;-72
2023/10/31 10:38:14;;;;;;;0.75;0.75;;;12.30;99.90;;;;;;5007968;28;20045;-72
2023/10/31 10:40:42;;;;;;;2.33;0.65;;;12.30;99.90;;;;;;5007489;28;20081;-72
2023/10/31 10:43:17;;;;;;;2.08;0.60;;;12.30;99.90;;;;;;5008005;28;20126;-72
2023/10/31 10:45:48;;;;;;;1.05;0.73;;;12.30;99.90;;;;;;5007931;28;20046;-72
2023/10/31 10:48:16;;;;;;;2.42;0.68;;;12.40;99.90;;;;;;5009559;28;20104;-72
2023/10/31 10:50:45;;;;;;;3.13;0.63;;;12.30;99.90;;;;;;5009758;28;20046;-73
2023/10/31 10:53:25;;;;;;;1.80;0.65;;;12.30;99.90;;;;;;5009221;28;20405;-73
2023/10/31 10:56:16;;;;;;;1.92;0.60;;;12.30;99.90;;;;;;5008548;28;20069;-74
2023/10/31 10:58:57;;;;;;;0.47;0.47;;;12.30;99.90;;;;;;5007557;28;20184;-75
2023/10/31 11:01:23;;;;;;;1.77;0.60;;;12.20;99.90;;;;;;5008940;28;20075;-80
2023/10/31 11:03:49;;;;;;;3.13;0.50;;;12.20;99.90;;;;;;5007878;28;20049;-80
2023/10/31 11:06:16;;;;;;;1.30;0.50;;;12.20;99.90;;;;;;5010003;28;20400;-81
2023/10/31 11:08:44;;;;;;;0.40;0.40;;;12.20;99.90;;;;;;5008829;28;20579;-80
2023/10/31 11:11:10;;;;;;;2.10;0.50;;;12.20;99.90;;;;;;5007468;28;20050;-80
2023/10/31 11:13:36;;;;;;;0.98;0.50;;;12.10;99.90;;;;;;5007440;28;20045;-79
2023/10/31 11:16:13;;;;;;;0.60;0.60;;;12.20;99.90;;;;;;5008408;28;20064;-78
2023/10/31 11:18:39;;;;;;;0.80;0.50;;;12.20;99.90;;;;;;5007130;28;20050;-75
2023/10/31 11:21:04;;;;;;;2.50;0.65;;;12.20;99.90;;;;;;5009834;28;20596;-78
2023/10/31 11:23:30;;;;;;;1.75;0.80;;;12.10;99.90;;;;;;5008222;28;20157;-76
2023/10/31 11:25:56;;;;;;;1.58;0.60;;;12.10;99.90;;;;;;5006982;28;20054;-75
2023/10/31 11:28:22;;;;;;;2.22;0.82;;;12.10;99.90;;;;;;5008496;28;20370;-75
2023/10/31 11:30:58;;;;;;;1.30;0.60;;;12.10;99.90;;;;;;5008594;28;20045;-74
2023/10/31 11:33:25;;;;;;;2.15;0.60;;;12.10;99.90;;;;;;5008555;28;20690;-74
2023/10/31 11:35:51;;;;;;;4.20;0.63;;;12.10;99.90;;;;;;5008714;28;20038;-73
2023/10/31 11:38:32;;;;;;;5.07;1.05;;;12.10;99.90;;;;;;5008276;28;20092;-73
2023/10/31 11:41:02;;;;;;;1.80;0.63;;;12.10;99.90;;;;;;5008274;28;20580;-74
2023/10/31 11:43:40;;;;;;;2.95;0.60;;;12.20;99.90;;;;;;5006698;28;20092;-74
2023/10/31 11:46:17;;;;;;;1.85;0.60;;;12.20;99.90;;;;;;5006718;28;20093;-74
2023/10/31 11:48:53;;;;;;;4.15;0.73;;;12.20;99.90;;;;;;5008475;28;20046;-74
2023/10/31 11:51:19;;;;;;;1.58;0.80;;;12.20;99.90;;;;;;5007236;28;20195;-74
2023/10/31 11:53:45;;;;;;;5.63;0.95;;;12.10;99.90;;;;;;5006733;28;20050;-74
2023/10/31 11:56:12;;;;;;;1.52;0.65;;;12.20;99.90;;;;;;5006871;28;20054;-74
2023/10/31 11:58:37;;;;;;;2.85;0.70;;;12.20;99.90;;;;;;5006926;28;20050;-75
2023/10/31 12:01:08;;;;;;;3.95;0.70;;;12.20;99.90;;;;;;5007152;28;20111;-72
2023/10/31 12:03:42;;;;;;;4.20;0.82;;;12.20;99.90;;;;;;5008166;28;20490;-72
2023/10/31 12:06:09;;;;;;;3.55;0.70;;;12.20;99.90;;;;;;5007964;28;20077;-74
2023/10/31 12:08:39;;;;;;;1.65;0.80;;;12.20;99.90;;;;;;5007774;28;20054;-73
2023/10/31 12:11:13;;;;;;;1.15;0.60;;;12.20;99.90;;;;;;5006649;28;20052;-73
2023/10/31 12:13:56;;;;;;;2.92;0.90;;;12.30;99.90;;;;;;5007130;28;20399;-73
2023/10/31 12:16:30;;;;;;;1.00;0.70;;;12.40;99.90;;;;;;5006768;28;20049;-73
2023/10/31 12:19:04;;;;;;;0.70;0.70;;;12.50;99.90;;;;;;5006991;28;20045;-73
2023/10/31 12:21:42;;;;;;;0.43;0.43;;;12.50;99.90;;;;;;5007677;28;20073;-72
2023/10/31 12:24:11;;;;;;;2.85;0.88;;;12.50;99.90;;;;;;5008281;28;20572;-73
2023/10/31 12:26:37;;;;;;;4.55;0.60;;;12.50;99.90;;;;;;5008079;28;20046;-73
2023/10/31 12:29:14;;;;;;;1.38;0.60;;;12.60;99.90;;;;;;5008939;28;20045;-72
2023/10/31 12:31:53;;;;;;;1.55;0.63;;;12.60;99.90;;;;;;5006766;28;20509;-73
2023/10/31 12:34:23;;;;;;;0.57;0.52;;;12.60;99.90;;;;;;5011591;28;20052;-72
2023/10/31 12:36:51;;;;;;;1.00;0.60;;;12.60;99.90;;;;;;5009719;28;20042;-72
2023/10/31 12:39:21;;;;;;;1.25;0.50;;;12.60;99.90;;;;;;5011573;28;20041;-73
2023/10/31 12:41:47;;;;;;;2.35;0.70;;;12.70;99.90;;;;;;5012020;28;20037;-73
2023/10/31 12:44:20;;;;;;;1.48;0.55;;;12.60;99.90;;;;;;5010718;28;20050;-72